KPIB/PIB METAR and TAF weather

Enter ICAO airport designator
Station Type Date Time Source
KPIB METAR 2022/01/26 12:56 UTC NOAA

KPIB 261256Z AUTO 01009KT 10SM CLR M01/M04 A3031 RMK AO2 SLP267 T10061039 FZRANO


Station Type Date Time Source
KPIB Decoded METAR 2022/01/26 12:56 UTC NOAA

Hattiesburg/Laurel, Hattiesburg-Laurel Regional Airport, MS, United States (KPIB) 31-28N 089-20W
Jan 26, 2022 - 07:56 AM EST / 2022.01.26 1256 UTC
Wind: from the N (010 degrees) at 10 MPH (9 KT):0
Visibility: 10 mile(s):0
Sky conditions: clear
Temperature: 30.9 F (-0.6 C)
Windchill: 23 F (-5 C):1
Dew Point: 25.0 F (-3.9 C)
Relative Humidity: 78%
Pressure (altimeter): 30.31 in. Hg (1026 hPa)
ob: KPIB 261256Z AUTO 01009KT 10SM CLR M01/M04 A3031 RMK AO2 SLP267 T10061039 FZRANO
cycle: 13

Station Type Date Time Source
KPIB TAF 2022/01/26 12:57 UTC NOAA

TAF KPIB 261157Z 2612/2712 01012KT P6SM SKC

Example: see airport list